sensor_id;sensor_type;location;lat;lon;timestamp;P1;durP1;ratioP1;P2;durP2;ratioP2
67514;SDS011;60646;55.802;37.032;2023-06-14T00:01:44;7.63;;;2.80;;
67514;SDS011;60646;55.802;37.032;2023-06-14T00:07:07;6.20;;;2.42;;
67514;SDS011;60646;55.802;37.032;2023-06-14T00:09:39;7.35;;;2.75;;
67514;SDS011;60646;55.802;37.032;2023-06-14T00:12:05;4.53;;;2.33;;
67514;SDS011;60646;55.802;37.032;2023-06-14T00:14:37;4.90;;;2.20;;
67514;SDS011;60646;55.802;37.032;2023-06-14T00:17:03;3.92;;;2.25;;
67514;SDS011;60646;55.802;37.032;2023-06-14T00:19:29;5.95;;;2.25;;
67514;SDS011;60646;55.802;37.032;2023-06-14T00:21:58;4.25;;;2.85;;
67514;SDS011;60646;55.802;37.032;2023-06-14T00:24:23;6.10;;;2.58;;
67514;SDS011;60646;55.802;37.032;2023-06-14T00:26:49;5.28;;;2.67;;
67514;SDS011;60646;55.802;37.032;2023-06-14T00:29:15;3.30;;;2.10;;
67514;SDS011;60646;55.802;37.032;2023-06-14T00:31:41;5.25;;;2.33;;
67514;SDS011;60646;55.802;37.032;2023-06-14T00:34:06;5.28;;;2.30;;
67514;SDS011;60646;55.802;37.032;2023-06-14T00:36:33;5.80;;;2.15;;
67514;SDS011;60646;55.802;37.032;2023-06-14T00:38:59;4.32;;;2.53;;
67514;SDS011;60646;55.802;37.032;2023-06-14T00:41:25;5.38;;;2.97;;
67514;SDS011;60646;55.802;37.032;2023-06-14T00:43:50;3.90;;;2.20;;
67514;SDS011;60646;55.802;37.032;2023-06-14T00:46:17;4.72;;;2.28;;
67514;SDS011;60646;55.802;37.032;2023-06-14T00:48:44;7.43;;;2.67;;
67514;SDS011;60646;55.802;37.032;2023-06-14T00:51:10;5.20;;;2.72;;
67514;SDS011;60646;55.802;37.032;2023-06-14T00:53:37;4.82;;;2.30;;
67514;SDS011;60646;55.802;37.032;2023-06-14T00:56:05;4.60;;;2.50;;
67514;SDS011;60646;55.802;37.032;2023-06-14T00:58:31;4.68;;;2.13;;
67514;SDS011;60646;55.802;37.032;2023-06-14T01:00:57;3.42;;;2.17;;
67514;SDS011;60646;55.802;37.032;2023-06-14T01:03:23;3.17;;;2.40;;
67514;SDS011;60646;55.802;37.032;2023-06-14T01:05:56;6.40;;;2.33;;
67514;SDS011;60646;55.802;37.032;2023-06-14T01:08:55;3.85;;;2.17;;
67514;SDS011;60646;55.802;37.032;2023-06-14T01:11:31;3.90;;;1.83;;
67514;SDS011;60646;55.802;37.032;2023-06-14T01:14:04;4.78;;;2.22;;
67514;SDS011;60646;55.802;37.032;2023-06-14T01:16:31;5.75;;;2.30;;
67514;SDS011;60646;55.802;37.032;2023-06-14T01:18:57;3.50;;;2.17;;
67514;SDS011;60646;55.802;37.032;2023-06-14T01:21:24;4.95;;;2.30;;
67514;SDS011;60646;55.802;37.032;2023-06-14T01:23:53;4.93;;;2.33;;
67514;SDS011;60646;55.802;37.032;2023-06-14T01:26:20;7.70;;;2.75;;
67514;SDS011;60646;55.802;37.032;2023-06-14T01:28:51;3.03;;;2.05;;
67514;SDS011;60646;55.802;37.032;2023-06-14T01:31:22;3.42;;;2.20;;
67514;SDS011;60646;55.802;37.032;2023-06-14T01:33:49;5.50;;;2.40;;
67514;SDS011;60646;55.802;37.032;2023-06-14T01:36:18;5.15;;;2.63;;
67514;SDS011;60646;55.802;37.032;2023-06-14T01:38:45;5.63;;;2.88;;
67514;SDS011;60646;55.802;37.032;2023-06-14T01:41:14;5.88;;;2.55;;
67514;SDS011;60646;55.802;37.032;2023-06-14T01:43:40;5.75;;;2.50;;
67514;SDS011;60646;55.802;37.032;2023-06-14T01:46:07;5.28;;;2.45;;
67514;SDS011;60646;55.802;37.032;2023-06-14T01:48:34;4.70;;;2.78;;
67514;SDS011;60646;55.802;37.032;2023-06-14T01:51:00;7.65;;;2.60;;
67514;SDS011;60646;55.802;37.032;2023-06-14T01:53:25;4.22;;;2.38;;
67514;SDS011;60646;55.802;37.032;2023-06-14T01:55:51;4.80;;;2.50;;
67514;SDS011;60646;55.802;37.032;2023-06-14T01:58:19;4.15;;;2.20;;
67514;SDS011;60646;55.802;37.032;2023-06-14T02:00:46;4.70;;;2.47;;
67514;SDS011;60646;55.802;37.032;2023-06-14T02:03:13;7.75;;;3.13;;
67514;SDS011;60646;55.802;37.032;2023-06-14T02:05:38;4.90;;;2.83;;
67514;SDS011;60646;55.802;37.032;2023-06-14T02:08:05;6.18;;;2.67;;
67514;SDS011;60646;55.802;37.032;2023-06-14T02:10:31;4.65;;;2.42;;
67514;SDS011;60646;55.802;37.032;2023-06-14T02:12:57;4.85;;;2.63;;
67514;SDS011;60646;55.802;37.032;2023-06-14T02:15:23;4.32;;;2.53;;
67514;SDS011;60646;55.802;37.032;2023-06-14T02:17:50;3.63;;;2.42;;
67514;SDS011;60646;55.802;37.032;2023-06-14T02:20:17;5.57;;;2.65;;
67514;SDS011;60646;55.802;37.032;2023-06-14T02:22:43;4.07;;;2.40;;
67514;SDS011;60646;55.802;37.032;2023-06-14T02:25:10;4.50;;;2.67;;
67514;SDS011;60646;55.802;37.032;2023-06-14T02:27:35;4.93;;;2.58;;
67514;SDS011;60646;55.802;37.032;2023-06-14T02:30:03;4.30;;;2.28;;
67514;SDS011;60646;55.802;37.032;2023-06-14T02:32:33;5.47;;;2.80;;
67514;SDS011;60646;55.802;37.032;2023-06-14T02:35:01;4.30;;;2.33;;
67514;SDS011;60646;55.802;37.032;2023-06-14T02:37:31;4.50;;;2.35;;
67514;SDS011;60646;55.802;37.032;2023-06-14T02:39:57;5.43;;;2.58;;
67514;SDS011;60646;55.802;37.032;2023-06-14T02:42:23;5.25;;;2.70;;
67514;SDS011;60646;55.802;37.032;2023-06-14T02:44:49;6.93;;;2.63;;
67514;SDS011;60646;55.802;37.032;2023-06-14T02:47:17;4.65;;;2.42;;
67514;SDS011;60646;55.802;37.032;2023-06-14T02:49:43;3.67;;;2.70;;
67514;SDS011;60646;55.802;37.032;2023-06-14T02:52:14;3.85;;;2.50;;
67514;SDS011;60646;55.802;37.032;2023-06-14T02:54:40;6.15;;;2.85;;
67514;SDS011;60646;55.802;37.032;2023-06-14T02:57:07;5.13;;;2.78;;
67514;SDS011;60646;55.802;37.032;2023-06-14T02:59:34;4.03;;;2.72;;
67514;SDS011;60646;55.802;37.032;2023-06-14T03:02:02;6.13;;;2.72;;
67514;SDS011;60646;55.802;37.032;2023-06-14T03:04:29;3.75;;;2.70;;
67514;SDS011;60646;55.802;37.032;2023-06-14T03:09:28;5.25;;;2.60;;
67514;SDS011;60646;55.802;37.032;2023-06-14T03:11:54;6.68;;;2.42;;
67514;SDS011;60646;55.802;37.032;2023-06-14T03:14:21;3.10;;;2.25;;
67514;SDS011;60646;55.802;37.032;2023-06-14T03:16:48;4.90;;;2.47;;
67514;SDS011;60646;55.802;37.032;2023-06-14T03:19:16;4.22;;;2.33;;
67514;SDS011;60646;55.802;37.032;2023-06-14T03:21:42;6.32;;;2.80;;
67514;SDS011;60646;55.802;37.032;2023-06-14T03:24:10;4.53;;;2.40;;
67514;SDS011;60646;55.802;37.032;2023-06-14T03:26:37;5.82;;;2.67;;
67514;SDS011;60646;55.802;37.032;2023-06-14T03:29:03;4.28;;;2.35;;
67514;SDS011;60646;55.802;37.032;2023-06-14T03:31:29;3.65;;;2.25;;
67514;SDS011;60646;55.802;37.032;2023-06-14T03:33:59;5.43;;;2.40;;
67514;SDS011;60646;55.802;37.032;2023-06-14T03:36:26;8.85;;;2.72;;
67514;SDS011;60646;55.802;37.032;2023-06-14T03:38:54;3.67;;;2.13;;
67514;SDS011;60646;55.802;37.032;2023-06-14T03:41:21;3.03;;;2.20;;
67514;SDS011;60646;55.802;37.032;2023-06-14T03:43:48;4.30;;;1.95;;
67514;SDS011;60646;55.802;37.032;2023-06-14T03:46:14;3.33;;;2.33;;
67514;SDS011;60646;55.802;37.032;2023-06-14T03:48:58;3.03;;;1.83;;
67514;SDS011;60646;55.802;37.032;2023-06-14T03:51:25;3.53;;;2.03;;
67514;SDS011;60646;55.802;37.032;2023-06-14T03:53:52;4.15;;;2.20;;
67514;SDS011;60646;55.802;37.032;2023-06-14T03:56:17;3.08;;;2.08;;
67514;SDS011;60646;55.802;37.032;2023-06-14T03:58:43;4.80;;;2.20;;
67514;SDS011;60646;55.802;37.032;2023-06-14T04:01:09;4.78;;;2.10;;
67514;SDS011;60646;55.802;37.032;2023-06-14T04:03:37;5.85;;;2.20;;
67514;SDS011;60646;55.802;37.032;2023-06-14T04:06:04;3.50;;;2.33;;
67514;SDS011;60646;55.802;37.032;2023-06-14T04:08:48;3.70;;;1.98;;
67514;SDS011;60646;55.802;37.032;2023-06-14T04:11:15;2.47;;;1.75;;
67514;SDS011;60646;55.802;37.032;2023-06-14T04:13:40;3.53;;;1.83;;
67514;SDS011;60646;55.802;37.032;2023-06-14T04:16:06;4.57;;;2.08;;
67514;SDS011;60646;55.802;37.032;2023-06-14T04:18:34;7.22;;;2.38;;
67514;SDS011;60646;55.802;37.032;2023-06-14T04:21:00;5.70;;;2.28;;
67514;SDS011;60646;55.802;37.032;2023-06-14T04:23:27;3.92;;;2.10;;
67514;SDS011;60646;55.802;37.032;2023-06-14T04:25:54;3.80;;;2.10;;
67514;SDS011;60646;55.802;37.032;2023-06-14T04:28:21;3.83;;;2.10;;
67514;SDS011;60646;55.802;37.032;2023-06-14T04:30:54;4.28;;;2.50;;
67514;SDS011;60646;55.802;37.032;2023-06-14T04:33:20;3.88;;;2.17;;
67514;SDS011;60646;55.802;37.032;2023-06-14T04:35:45;2.83;;;2.00;;
67514;SDS011;60646;55.802;37.032;2023-06-14T04:38:15;3.92;;;2.13;;
67514;SDS011;60646;55.802;37.032;2023-06-14T04:40:41;3.65;;;2.20;;
67514;SDS011;60646;55.802;37.032;2023-06-14T04:43:15;6.18;;;2.33;;
67514;SDS011;60646;55.802;37.032;2023-06-14T04:45:43;3.63;;;2.17;;
67514;SDS011;60646;55.802;37.032;2023-06-14T04:48:12;4.22;;;2.25;;
67514;SDS011;60646;55.802;37.032;2023-06-14T04:50:38;2.70;;;2.00;;
67514;SDS011;60646;55.802;37.032;2023-06-14T04:53:07;3.97;;;1.98;;
67514;SDS011;60646;55.802;37.032;2023-06-14T04:55:33;4.72;;;2.10;;
67514;SDS011;60646;55.802;37.032;2023-06-14T04:58:00;4.80;;;1.95;;
67514;SDS011;60646;55.802;37.032;2023-06-14T05:00:28;3.63;;;1.98;;
67514;SDS011;60646;55.802;37.032;2023-06-14T05:02:56;3.63;;;1.98;;
67514;SDS011;60646;55.802;37.032;2023-06-14T05:05:23;2.92;;;1.88;;
67514;SDS011;60646;55.802;37.032;2023-06-14T05:07:49;4.22;;;2.33;;
67514;SDS011;60646;55.802;37.032;2023-06-14T05:10:16;4.05;;;2.10;;
67514;SDS011;60646;55.802;37.032;2023-06-14T05:12:42;3.90;;;1.98;;
67514;SDS011;60646;55.802;37.032;2023-06-14T05:15:09;4.38;;;1.92;;
67514;SDS011;60646;55.802;37.032;2023-06-14T05:17:36;3.85;;;1.85;;
67514;SDS011;60646;55.802;37.032;2023-06-14T05:20:02;3.30;;;1.75;;
67514;SDS011;60646;55.802;37.032;2023-06-14T05:22:31;6.25;;;1.75;;
67514;SDS011;60646;55.802;37.032;2023-06-14T05:24:57;2.40;;;1.70;;
67514;SDS011;60646;55.802;37.032;2023-06-14T05:27:48;3.60;;;1.83;;
67514;SDS011;60646;55.802;37.032;2023-06-14T05:30:15;3.35;;;1.90;;
67514;SDS011;60646;55.802;37.032;2023-06-14T05:32:58;3.60;;;1.73;;
67514;SDS011;60646;55.802;37.032;2023-06-14T05:35:24;3.08;;;1.83;;
67514;SDS011;60646;55.802;37.032;2023-06-14T05:37:52;5.07;;;2.03;;
67514;SDS011;60646;55.802;37.032;2023-06-14T05:40:36;3.88;;;1.67;;
67514;SDS011;60646;55.802;37.032;2023-06-14T05:43:02;2.85;;;1.63;;
67514;SDS011;60646;55.802;37.032;2023-06-14T05:45:28;3.22;;;1.77;;
67514;SDS011;60646;55.802;37.032;2023-06-14T05:47:54;2.97;;;1.88;;
67514;SDS011;60646;55.802;37.032;2023-06-14T05:50:20;3.90;;;2.00;;
67514;SDS011;60646;55.802;37.032;2023-06-14T05:53:05;4.60;;;2.22;;
67514;SDS011;60646;55.802;37.032;2023-06-14T05:55:30;8.10;;;2.10;;
67514;SDS011;60646;55.802;37.032;2023-06-14T05:57:56;2.53;;;1.50;;
67514;SDS011;60646;55.802;37.032;2023-06-14T06:00:22;2.22;;;1.70;;
67514;SDS011;60646;55.802;37.032;2023-06-14T06:02:48;3.10;;;1.60;;
67514;SDS011;60646;55.802;37.032;2023-06-14T06:05:14;2.50;;;1.55;;
67514;SDS011;60646;55.802;37.032;2023-06-14T06:07:43;5.55;;;1.90;;
67514;SDS011;60646;55.802;37.032;2023-06-14T06:10:11;8.70;;;1.95;;
67514;SDS011;60646;55.802;37.032;2023-06-14T06:12:37;7.40;;;1.92;;
67514;SDS011;60646;55.802;37.032;2023-06-14T06:15:03;2.42;;;1.75;;
67514;SDS011;60646;55.802;37.032;2023-06-14T06:17:31;3.28;;;1.75;;
67514;SDS011;60646;55.802;37.032;2023-06-14T06:19:57;2.97;;;1.90;;
67514;SDS011;60646;55.802;37.032;2023-06-14T06:22:23;4.05;;;2.20;;
67514;SDS011;60646;55.802;37.032;2023-06-14T06:24:49;2.85;;;1.52;;
67514;SDS011;60646;55.802;37.032;2023-06-14T06:27:15;2.80;;;1.70;;
67514;SDS011;60646;55.802;37.032;2023-06-14T06:29:42;4.05;;;1.38;;
67514;SDS011;60646;55.802;37.032;2023-06-14T06:32:09;3.15;;;1.50;;
67514;SDS011;60646;55.802;37.032;2023-06-14T06:34:34;3.67;;;1.67;;
67514;SDS011;60646;55.802;37.032;2023-06-14T06:37:02;3.67;;;1.98;;
67514;SDS011;60646;55.802;37.032;2023-06-14T06:39:28;3.03;;;1.42;;
67514;SDS011;60646;55.802;37.032;2023-06-14T06:41:54;2.65;;;1.58;;
67514;SDS011;60646;55.802;37.032;2023-06-14T08:23:04;1.90;;;1.27;;
67514;SDS011;60646;55.802;37.032;2023-06-14T12:02:17;5.03;;;2.30;;
67514;SDS011;60646;55.802;37.032;2023-06-14T12:04:46;3.10;;;1.90;;
67514;SDS011;60646;55.802;37.032;2023-06-14T12:07:17;4.50;;;1.92;;
67514;SDS011;60646;55.802;37.032;2023-06-14T12:12:23;4.80;;;1.92;;
67514;SDS011;60646;55.802;37.032;2023-06-14T12:14:52;4.43;;;1.90;;
67514;SDS011;60646;55.802;37.032;2023-06-14T12:17:21;2.25;;;1.67;;
67514;SDS011;60646;55.802;37.032;2023-06-14T12:19:48;2.25;;;1.55;;
67514;SDS011;60646;55.802;37.032;2023-06-14T12:22:15;5.10;;;1.88;;
67514;SDS011;60646;55.802;37.032;2023-06-14T12:27:46;2.80;;;1.50;;
67514;SDS011;60646;55.802;37.032;2023-06-14T12:30:12;2.35;;;1.63;;
67514;SDS011;60646;55.802;37.032;2023-06-14T12:32:38;4.65;;;1.95;;
67514;SDS011;60646;55.802;37.032;2023-06-14T12:35:04;6.55;;;1.88;;
67514;SDS011;60646;55.802;37.032;2023-06-14T12:37:30;2.60;;;1.77;;
67514;SDS011;60646;55.802;37.032;2023-06-14T12:40:14;3.13;;;1.70;;
67514;SDS011;60646;55.802;37.032;2023-06-14T12:42:40;2.28;;;1.83;;
67514;SDS011;60646;55.802;37.032;2023-06-14T12:45:07;4.90;;;1.58;;
67514;SDS011;60646;55.802;37.032;2023-06-14T12:47:33;4.90;;;1.90;;
67514;SDS011;60646;55.802;37.032;2023-06-14T12:49:58;2.88;;;1.77;;
67514;SDS011;60646;55.802;37.032;2023-06-14T12:52:24;8.45;;;2.25;;
67514;SDS011;60646;55.802;37.032;2023-06-14T12:54:50;10.00;;;2.30;;
67514;SDS011;60646;55.802;37.032;2023-06-14T12:57:16;4.30;;;2.10;;
67514;SDS011;60646;55.802;37.032;2023-06-14T12:59:43;3.40;;;2.08;;
67514;SDS011;60646;55.802;37.032;2023-06-14T13:02:16;5.53;;;2.33;;
67514;SDS011;60646;55.802;37.032;2023-06-14T13:04:43;2.40;;;1.65;;
67514;SDS011;60646;55.802;37.032;2023-06-14T13:07:10;3.00;;;1.73;;
67514;SDS011;60646;55.802;37.032;2023-06-14T13:09:36;4.38;;;1.70;;
67514;SDS011;60646;55.802;37.032;2023-06-14T13:12:46;3.50;;;1.48;;
67514;SDS011;60646;55.802;37.032;2023-06-14T13:18:46;3.90;;;1.98;;
67514;SDS011;60646;55.802;37.032;2023-06-14T13:21:12;2.30;;;1.90;;
67514;SDS011;60646;55.802;37.032;2023-06-14T13:23:38;5.20;;;2.33;;
67514;SDS011;60646;55.802;37.032;2023-06-14T13:28:49;2.40;;;1.80;;
67514;SDS011;60646;55.802;37.032;2023-06-14T13:31:16;2.28;;;1.63;;
67514;SDS011;60646;55.802;37.032;2023-06-14T13:33:42;3.30;;;1.60;;
67514;SDS011;60646;55.802;37.032;2023-06-14T13:36:08;6.85;;;1.60;;
67514;SDS011;60646;55.802;37.032;2023-06-14T13:38:34;6.80;;;1.60;;
67514;SDS011;60646;55.802;37.032;2023-06-14T13:43:44;5.78;;;1.98;;
67514;SDS011;60646;55.802;37.032;2023-06-14T13:46:10;7.38;;;2.28;;
67514;SDS011;60646;55.802;37.032;2023-06-14T13:48:36;3.75;;;1.90;;
67514;SDS011;60646;55.802;37.032;2023-06-14T13:51:02;2.58;;;1.40;;
67514;SDS011;60646;55.802;37.032;2023-06-14T13:53:29;4.68;;;1.70;;
67514;SDS011;60646;55.802;37.032;2023-06-14T13:55:55;4.15;;;2.13;;
67514;SDS011;60646;55.802;37.032;2023-06-14T13:58:40;2.75;;;1.83;;
67514;SDS011;60646;55.802;37.032;2023-06-14T14:01:07;4.22;;;1.73;;
67514;SDS011;60646;55.802;37.032;2023-06-14T14:03:34;8.07;;;1.80;;
67514;SDS011;60646;55.802;37.032;2023-06-14T14:06:00;2.17;;;1.40;;
67514;SDS011;60646;55.802;37.032;2023-06-14T14:08:27;2.30;;;1.60;;
67514;SDS011;60646;55.802;37.032;2023-06-14T14:10:53;2.22;;;1.30;;
67514;SDS011;60646;55.802;37.032;2023-06-14T14:16:05;3.83;;;1.90;;
67514;SDS011;60646;55.802;37.032;2023-06-14T14:18:31;3.75;;;1.67;;
67514;SDS011;60646;55.802;37.032;2023-06-14T14:23:42;4.25;;;2.08;;
67514;SDS011;60646;55.802;37.032;2023-06-14T14:26:09;3.97;;;1.58;;
67514;SDS011;60646;55.802;37.032;2023-06-14T14:28:35;4.40;;;1.73;;
67514;SDS011;60646;55.802;37.032;2023-06-14T14:31:38;2.85;;;1.83;;
67514;SDS011;60646;55.802;37.032;2023-06-14T14:34:04;2.42;;;1.65;;
67514;SDS011;60646;55.802;37.032;2023-06-14T14:36:49;4.25;;;1.52;;
67514;SDS011;60646;55.802;37.032;2023-06-14T14:39:14;2.38;;;1.75;;
67514;SDS011;60646;55.802;37.032;2023-06-14T14:42:00;2.55;;;1.60;;
67514;SDS011;60646;55.802;37.032;2023-06-14T14:44:25;4.80;;;2.00;;
67514;SDS011;60646;55.802;37.032;2023-06-14T14:46:51;2.38;;;1.58;;
67514;SDS011;60646;55.802;37.032;2023-06-14T14:49:17;3.38;;;1.77;;
67514;SDS011;60646;55.802;37.032;2023-06-14T14:51:42;2.25;;;1.52;;
67514;SDS011;60646;55.802;37.032;2023-06-14T14:54:08;1.95;;;1.60;;
67514;SDS011;60646;55.802;37.032;2023-06-14T14:56:34;2.00;;;1.35;;
67514;SDS011;60646;55.802;37.032;2023-06-14T14:59:19;2.20;;;1.52;;
67514;SDS011;60646;55.802;37.032;2023-06-14T15:01:47;2.35;;;1.45;;
67514;SDS011;60646;55.802;37.032;2023-06-14T15:04:13;3.40;;;1.70;;
67514;SDS011;60646;55.802;37.032;2023-06-14T15:06:39;2.05;;;1.35;;
67514;SDS011;60646;55.802;37.032;2023-06-14T15:09:07;2.85;;;1.80;;
67514;SDS011;60646;55.802;37.032;2023-06-14T15:11:33;2.95;;;1.52;;
67514;SDS011;60646;55.802;37.032;2023-06-14T15:16:44;2.35;;;1.90;;
67514;SDS011;60646;55.802;37.032;2023-06-14T15:21:54;2.38;;;1.77;;
67514;SDS011;60646;55.802;37.032;2023-06-14T15:24:22;3.50;;;2.00;;
67514;SDS011;60646;55.802;37.032;2023-06-14T15:26:48;2.25;;;1.65;;
67514;SDS011;60646;55.802;37.032;2023-06-14T15:32:03;2.67;;;1.77;;
67514;SDS011;60646;55.802;37.032;2023-06-14T15:34:30;2.75;;;1.88;;
67514;SDS011;60646;55.802;37.032;2023-06-14T15:36:56;2.40;;;1.60;;
67514;SDS011;60646;55.802;37.032;2023-06-14T15:39:22;2.05;;;1.50;;
67514;SDS011;60646;55.802;37.032;2023-06-14T15:42:07;1.77;;;1.42;;
67514;SDS011;60646;55.802;37.032;2023-06-14T15:44:33;2.20;;;1.60;;
67514;SDS011;60646;55.802;37.032;2023-06-14T15:47:00;5.95;;;1.83;;
67514;SDS011;60646;55.802;37.032;2023-06-14T15:49:25;10.02;;;2.08;;
67514;SDS011;60646;55.802;37.032;2023-06-14T15:51:51;2.28;;;1.67;;
67514;SDS011;60646;55.802;37.032;2023-06-14T15:54:17;2.38;;;1.77;;
67514;SDS011;60646;55.802;37.032;2023-06-14T15:57:01;4.38;;;1.80;;
67514;SDS011;60646;55.802;37.032;2023-06-14T15:59:46;4.75;;;2.40;;
67514;SDS011;60646;55.802;37.032;2023-06-14T16:02:12;7.85;;;3.67;;
67514;SDS011;60646;55.802;37.032;2023-06-14T16:04:37;13.90;;;5.25;;
67514;SDS011;60646;55.802;37.032;2023-06-14T16:07:03;6.88;;;2.95;;
67514;SDS011;60646;55.802;37.032;2023-06-14T16:09:29;4.88;;;2.40;;
67514;SDS011;60646;55.802;37.032;2023-06-14T16:11:55;7.47;;;3.70;;
67514;SDS011;60646;55.802;37.032;2023-06-14T16:14:22;5.07;;;2.45;;
67514;SDS011;60646;55.802;37.032;2023-06-14T16:19:32;7.50;;;3.30;;
67514;SDS011;60646;55.802;37.032;2023-06-14T16:21:58;6.35;;;2.97;;
67514;SDS011;60646;55.802;37.032;2023-06-14T16:24:42;6.68;;;3.20;;
67514;SDS011;60646;55.802;37.032;2023-06-14T16:27:08;7.13;;;2.70;;
67514;SDS011;60646;55.802;37.032;2023-06-14T16:29:52;8.15;;;3.38;;
67514;SDS011;60646;55.802;37.032;2023-06-14T16:32:19;4.47;;;2.42;;
67514;SDS011;60646;55.802;37.032;2023-06-14T16:34:45;3.30;;;2.28;;
67514;SDS011;60646;55.802;37.032;2023-06-14T16:37:11;5.60;;;2.42;;
67514;SDS011;60646;55.802;37.032;2023-06-14T16:39:37;3.38;;;1.80;;
67514;SDS011;60646;55.802;37.032;2023-06-14T16:42:03;3.15;;;1.80;;
67514;SDS011;60646;55.802;37.032;2023-06-14T16:44:29;3.60;;;2.10;;
67514;SDS011;60646;55.802;37.032;2023-06-14T16:46:55;3.72;;;2.22;;
67514;SDS011;60646;55.802;37.032;2023-06-14T16:49:21;7.75;;;2.70;;
67514;SDS011;60646;55.802;37.032;2023-06-14T16:51:47;6.40;;;2.63;;
67514;SDS011;60646;55.802;37.032;2023-06-14T16:54:12;4.18;;;1.90;;
67514;SDS011;60646;55.802;37.032;2023-06-14T16:56:38;3.25;;;2.08;;
67514;SDS011;60646;55.802;37.032;2023-06-14T16:59:22;4.35;;;2.00;;
67514;SDS011;60646;55.802;37.032;2023-06-14T17:01:51;4.72;;;1.80;;
67514;SDS011;60646;55.802;37.032;2023-06-14T17:04:36;4.50;;;2.15;;
67514;SDS011;60646;55.802;37.032;2023-06-14T17:07:01;3.40;;;1.50;;
67514;SDS011;60646;55.802;37.032;2023-06-14T17:09:30;2.83;;;1.45;;
67514;SDS011;60646;55.802;37.032;2023-06-14T17:11:56;2.67;;;1.60;;
67514;SDS011;60646;55.802;37.032;2023-06-14T17:14:22;1.70;;;1.42;;
67514;SDS011;60646;55.802;37.032;2023-06-14T17:17:07;3.00;;;1.63;;
67514;SDS011;60646;55.802;37.032;2023-06-14T17:22:18;4.57;;;1.73;;
67514;SDS011;60646;55.802;37.032;2023-06-14T17:24:44;5.28;;;1.75;;
67514;SDS011;60646;55.802;37.032;2023-06-14T17:27:10;2.90;;;1.83;;
67514;SDS011;60646;55.802;37.032;2023-06-14T17:29:36;2.03;;;1.52;;
67514;SDS011;60646;55.802;37.032;2023-06-14T17:34:47;1.80;;;1.35;;
67514;SDS011;60646;55.802;37.032;2023-06-14T17:37:12;3.67;;;1.60;;
67514;SDS011;60646;55.802;37.032;2023-06-14T17:39:38;2.42;;;1.60;;
67514;SDS011;60646;55.802;37.032;2023-06-14T17:42:07;2.70;;;1.60;;
67514;SDS011;60646;55.802;37.032;2023-06-14T17:44:33;2.15;;;1.50;;
67514;SDS011;60646;55.802;37.032;2023-06-14T17:47:03;3.00;;;1.60;;
67514;SDS011;60646;55.802;37.032;2023-06-14T17:49:32;2.50;;;1.55;;
67514;SDS011;60646;55.802;37.032;2023-06-14T17:51:57;2.58;;;1.70;;
67514;SDS011;60646;55.802;37.032;2023-06-14T17:54:42;2.47;;;1.50;;
67514;SDS011;60646;55.802;37.032;2023-06-14T17:57:08;2.35;;;1.70;;
67514;SDS011;60646;55.802;37.032;2023-06-14T17:59:34;17.23;;;2.20;;
67514;SDS011;60646;55.802;37.032;2023-06-14T18:02:18;4.28;;;1.50;;
67514;SDS011;60646;55.802;37.032;2023-06-14T18:05:03;5.18;;;1.60;;
67514;SDS011;60646;55.802;37.032;2023-06-14T18:07:29;2.60;;;1.70;;
67514;SDS011;60646;55.802;37.032;2023-06-14T18:09:55;2.92;;;1.70;;
67514;SDS011;60646;55.802;37.032;2023-06-14T18:12:21;2.15;;;1.52;;
67514;SDS011;60646;55.802;37.032;2023-06-14T18:14:46;4.13;;;1.70;;
67514;SDS011;60646;55.802;37.032;2023-06-14T18:17:12;3.08;;;1.77;;
67514;SDS011;60646;55.802;37.032;2023-06-14T18:19:38;2.58;;;1.50;;
67514;SDS011;60646;55.802;37.032;2023-06-14T18:22:04;4.75;;;1.55;;
67514;SDS011;60646;55.802;37.032;2023-06-14T18:24:30;2.80;;;1.80;;
67514;SDS011;60646;55.802;37.032;2023-06-14T18:26:56;3.00;;;1.85;;
67514;SDS011;60646;55.802;37.032;2023-06-14T18:29:23;2.30;;;1.80;;
67514;SDS011;60646;55.802;37.032;2023-06-14T18:32:07;6.05;;;2.72;;
67514;SDS011;60646;55.802;37.032;2023-06-14T18:34:52;7.78;;;3.20;;
67514;SDS011;60646;55.802;37.032;2023-06-14T18:37:18;59.25;;;18.38;;
67514;SDS011;60646;55.802;37.032;2023-06-14T18:39:43;119.80;;;39.20;;
67514;SDS011;60646;55.802;37.032;2023-06-14T18:42:09;196.88;;;64.78;;
67514;SDS011;60646;55.802;37.032;2023-06-14T18:44:54;301.73;;;98.18;;
67514;SDS011;60646;55.802;37.032;2023-06-14T18:47:19;343.85;;;103.13;;
67514;SDS011;60646;55.802;37.032;2023-06-14T18:49:45;258.77;;;76.15;;
67514;SDS011;60646;55.802;37.032;2023-06-14T18:52:11;186.18;;;56.17;;
67514;SDS011;60646;55.802;37.032;2023-06-14T18:54:38;112.43;;;31.40;;
67514;SDS011;60646;55.802;37.032;2023-06-14T18:57:04;72.25;;;19.65;;
67514;SDS011;60646;55.802;37.032;2023-06-14T18:59:32;44.97;;;13.10;;
67514;SDS011;60646;55.802;37.032;2023-06-14T19:01:58;31.70;;;9.52;;
67514;SDS011;60646;55.802;37.032;2023-06-14T19:04:24;22.63;;;6.88;;
67514;SDS011;60646;55.802;37.032;2023-06-14T19:06:50;11.57;;;3.97;;
67514;SDS011;60646;55.802;37.032;2023-06-14T19:09:16;6.10;;;2.85;;
67514;SDS011;60646;55.802;37.032;2023-06-14T19:11:45;7.05;;;2.83;;
67514;SDS011;60646;55.802;37.032;2023-06-14T19:14:13;7.00;;;3.35;;
67514;SDS011;60646;55.802;37.032;2023-06-14T19:19:24;5.00;;;2.22;;
67514;SDS011;60646;55.802;37.032;2023-06-14T19:21:50;4.82;;;2.15;;
67514;SDS011;60646;55.802;37.032;2023-06-14T19:24:15;3.63;;;1.85;;
67514;SDS011;60646;55.802;37.032;2023-06-14T19:26:42;4.45;;;2.10;;
67514;SDS011;60646;55.802;37.032;2023-06-14T19:29:08;3.38;;;2.05;;
67514;SDS011;60646;55.802;37.032;2023-06-14T19:31:34;3.15;;;2.08;;
67514;SDS011;60646;55.802;37.032;2023-06-14T19:34:01;4.85;;;2.40;;
67514;SDS011;60646;55.802;37.032;2023-06-14T19:36:27;4.97;;;2.20;;
67514;SDS011;60646;55.802;37.032;2023-06-14T19:38:53;5.20;;;2.63;;
67514;SDS011;60646;55.802;37.032;2023-06-14T19:41:56;7.28;;;3.83;;
67514;SDS011;60646;55.802;37.032;2023-06-14T19:44:22;15.90;;;6.47;;
67514;SDS011;60646;55.802;37.032;2023-06-14T19:46:48;35.15;;;13.95;;
67514;SDS011;60646;55.802;37.032;2023-06-14T19:49:13;54.97;;;20.25;;
67514;SDS011;60646;55.802;37.032;2023-06-14T19:51:39;72.97;;;25.73;;
67514;SDS011;60646;55.802;37.032;2023-06-14T19:56:49;72.63;;;22.63;;
67514;SDS011;60646;55.802;37.032;2023-06-14T19:59:15;59.67;;;17.38;;
67514;SDS011;60646;55.802;37.032;2023-06-14T20:01:41;24.17;;;8.27;;
67514;SDS011;60646;55.802;37.032;2023-06-14T20:04:07;16.88;;;5.78;;
67514;SDS011;60646;55.802;37.032;2023-06-14T20:06:32;11.32;;;4.07;;
67514;SDS011;60646;55.802;37.032;2023-06-14T20:09:17;10.50;;;4.45;;
67514;SDS011;60646;55.802;37.032;2023-06-14T20:11:44;10.20;;;4.28;;
67514;SDS011;60646;55.802;37.032;2023-06-14T20:14:10;10.15;;;4.15;;
67514;SDS011;60646;55.802;37.032;2023-06-14T20:16:35;6.97;;;3.10;;
67514;SDS011;60646;55.802;37.032;2023-06-14T20:19:01;5.50;;;2.83;;
67514;SDS011;60646;55.802;37.032;2023-06-14T20:21:27;6.07;;;2.60;;
67514;SDS011;60646;55.802;37.032;2023-06-14T20:23:53;4.53;;;2.40;;
67514;SDS011;60646;55.802;37.032;2023-06-14T20:26:19;5.47;;;2.65;;
67514;SDS011;60646;55.802;37.032;2023-06-14T20:28:45;7.47;;;2.80;;
67514;SDS011;60646;55.802;37.032;2023-06-14T20:31:10;4.78;;;3.03;;
67514;SDS011;60646;55.802;37.032;2023-06-14T20:33:38;4.63;;;2.65;;
67514;SDS011;60646;55.802;37.032;2023-06-14T20:36:04;6.43;;;3.03;;
67514;SDS011;60646;55.802;37.032;2023-06-14T20:38:30;6.95;;;3.33;;
67514;SDS011;60646;55.802;37.032;2023-06-14T20:40:56;7.22;;;3.35;;
67514;SDS011;60646;55.802;37.032;2023-06-14T20:43:24;6.03;;;3.25;;